MT WASHINGTON (MTW)

Elevation: 920' · LOS ANGELES R basin · Operator: Los Angeles County Fire Dept

Query executed Wednesday at 23:11:15   clock

Provisional data, subject to change.
Select a sensor type for a plot of data.

Earlier

Date   /   Time   RAIN     TEMP     REL HUM     BAR PRE     FUEL MS     FUEL TP     WIND SP     WIND DR     PEAK WS     PEAK WD     SOLAR R     BAT VOL    
(PDT)INCHES   DEG F   %   INCHES   %   DEG F   MPH   DEG   MPH   DEG   W/M^2   VOLTS  
10/01/2014 00:00 0.00 64 76 -- 13 62 -- -- -- -- 0.00 12.4
10/01/2014 01:00 0.00 62 82 -- 14 61 -- -- -- -- 0.00 12.4
10/01/2014 02:00 0.00 62 83 -- 15 60 -- -- -- -- 0.00 12.4
10/01/2014 03:00 0.00 62 89 -- 16 61 -- -- -- -- 0.00 12.3
10/01/2014 04:00 0.00 62 92 -- 18 61 -- -- -- -- 0.00 12.3
10/01/2014 05:00 0.00 61 94 -- 19 61 -- -- -- -- 0.00 12.3
10/01/2014 06:00 0.00 61 94 -- 19 60 -- -- -- -- 1.00 12.2
10/01/2014 07:00 0.00 61 94 -- 19 62 -- -- -- -- 39.00 12.5
10/01/2014 08:00 0.00 65 93 -- 19 65 -- -- -- -- 94.00 12.9
10/01/2014 09:00 0.00 74 60 -- 16 74 -- -- -- -- 474.00 13.5
10/01/2014 10:00 0.00 77 52 -- 14 86 -- -- -- -- 622.00 13.4
10/01/2014 11:00 0.00 81 42 -- 12 88 -- -- -- -- 725.00 13.4
10/01/2014 12:00 0.00 83 38 -- 11 99 -- -- -- -- 766.00 13.4
10/01/2014 13:00 0.00 86 33 -- 10 101 -- -- -- -- 741.00 13.4
10/01/2014 14:00 0.00 84 40 -- 9 98 -- -- -- -- 655.00 13.4
10/01/2014 15:00 0.00 84 41 -- 9 93 -- -- -- -- 377.00 13.4
10/01/2014 16:00 0.00 82 42 -- 9 82 -- -- -- -- 236.00 13.5
10/01/2014 17:00 0.00 74 54 -- 9 74 -- -- -- -- 69.00 12.6
10/01/2014 18:00 0.00 70 67 -- 10 69 -- -- -- -- 9.00 12.5
10/01/2014 19:00 0.00 67 74 -- 11 67 -- -- -- -- 0.00 12.5
10/01/2014 20:00 0.00 66 76 -- 12 66 -- -- -- -- 0.00 12.5
10/01/2014 21:00 0.00 66 83 -- 14 65 -- -- -- -- 0.00 12.5
10/01/2014 22:00 0.00 65 87 -- 15 64 -- -- -- -- 0.00 12.5
10/01/2014 23:00 -- -- -- -- -- -- -- -- -- -- -- --

Later | Latest

Warning! This data is preliminary and subject to revision.

Download Data Now Download Data Now | Show MTW Map | 24 Hours MTW Data | Plot all MTW Sensors | Daily MTW Data | MTW Info